sensor_id;sensor_type;location;lat;lon;timestamp;pressure;altitude;pressure_sealevel;temperature;humidity
70248;BME280;57641;51.416;5.506;2022-10-14T00:01:13;101627.63;;;18.46;63.64
70248;BME280;57641;51.416;5.506;2022-10-14T00:03:41;101630.91;;;18.41;63.44
70248;BME280;57641;51.416;5.506;2022-10-14T00:06:09;101626.50;;;18.40;63.59
70248;BME280;57641;51.416;5.506;2022-10-14T00:08:36;101629.03;;;18.42;63.50
70248;BME280;57641;51.416;5.506;2022-10-14T00:11:11;101629.41;;;18.39;63.42
70248;BME280;57641;51.416;5.506;2022-10-14T00:13:40;101625.22;;;18.36;63.47
70248;BME280;57641;51.416;5.506;2022-10-14T00:16:11;101626.22;;;18.35;63.46
70248;BME280;57641;51.416;5.506;2022-10-14T00:18:39;101635.56;;;18.33;63.48
70248;BME280;57641;51.416;5.506;2022-10-14T00:21:08;101632.19;;;18.31;63.54
70248;BME280;57641;51.416;5.506;2022-10-14T00:23:33;101633.41;;;18.28;63.68
70248;BME280;57641;51.416;5.506;2022-10-14T00:25:58;101633.19;;;18.30;63.76
70248;BME280;57641;51.416;5.506;2022-10-14T00:28:24;101636.75;;;18.30;63.63
70248;BME280;57641;51.416;5.506;2022-10-14T00:30:58;101630.50;;;18.30;64.00
70248;BME280;57641;51.416;5.506;2022-10-14T00:33:25;101629.88;;;18.28;63.92
70248;BME280;57641;51.416;5.506;2022-10-14T00:35:56;101634.88;;;18.31;63.86
70248;BME280;57641;51.416;5.506;2022-10-14T00:38:22;101622.91;;;18.33;63.51
70248;BME280;57641;51.416;5.506;2022-10-14T00:40:49;101618.78;;;18.37;63.58
70248;BME280;57641;51.416;5.506;2022-10-14T00:43:15;101616.28;;;18.36;63.64
70248;BME280;57641;51.416;5.506;2022-10-14T00:45:40;101611.09;;;18.34;63.59
70248;BME280;57641;51.416;5.506;2022-10-14T00:48:06;101614.41;;;18.36;63.71
70248;BME280;57641;51.416;5.506;2022-10-14T00:50:34;101608.00;;;18.37;63.73
70248;BME280;57641;51.416;5.506;2022-10-14T00:53:00;101609.84;;;18.37;63.40
70248;BME280;57641;51.416;5.506;2022-10-14T00:55:27;101604.28;;;18.38;63.56
70248;BME280;57641;51.416;5.506;2022-10-14T00:57:54;101605.97;;;18.39;63.68
70248;BME280;57641;51.416;5.506;2022-10-14T01:00:20;101598.69;;;18.40;63.65
70248;BME280;57641;51.416;5.506;2022-10-14T01:02:46;101595.78;;;18.41;63.55
70248;BME280;57641;51.416;5.506;2022-10-14T01:05:14;101594.09;;;18.40;63.45
70248;BME280;57641;51.416;5.506;2022-10-14T01:10:45;101587.06;;;18.39;63.62
70248;BME280;57641;51.416;5.506;2022-10-14T01:13:33;101587.69;;;18.27;63.81
70248;BME280;57641;51.416;5.506;2022-10-14T01:21:41;101587.59;;;18.20;64.63
70248;BME280;57641;51.416;5.506;2022-10-14T01:32:27;101569.09;;;18.17;64.30
70248;BME280;57641;51.416;5.506;2022-10-14T01:37:45;101561.44;;;18.21;64.42
70248;BME280;57641;51.416;5.506;2022-10-14T01:40:32;101554.47;;;18.26;64.37
70248;BME280;57641;51.416;5.506;2022-10-14T01:42:59;101547.59;;;18.24;64.27
70248;BME280;57641;51.416;5.506;2022-10-14T01:45:28;101541.63;;;18.28;64.38
70248;BME280;57641;51.416;5.506;2022-10-14T01:47:57;101540.41;;;18.31;63.94
70248;BME280;57641;51.416;5.506;2022-10-14T01:50:26;101539.19;;;18.33;64.38
70248;BME280;57641;51.416;5.506;2022-10-14T01:52:58;101524.88;;;18.33;64.05
70248;BME280;57641;51.416;5.506;2022-10-14T01:55:29;101529.25;;;18.34;64.10
70248;BME280;57641;51.416;5.506;2022-10-14T01:57:57;101528.19;;;18.35;64.41
70248;BME280;57641;51.416;5.506;2022-10-14T02:00:24;101534.44;;;18.35;64.21
70248;BME280;57641;51.416;5.506;2022-10-14T02:02:49;101538.81;;;18.36;64.07
70248;BME280;57641;51.416;5.506;2022-10-14T02:05:28;101536.78;;;18.38;64.30
70248;BME280;57641;51.416;5.506;2022-10-14T02:08:08;101530.72;;;18.36;64.23
70248;BME280;57641;51.416;5.506;2022-10-14T02:11:03;101530.72;;;18.36;64.62
70248;BME280;57641;51.416;5.506;2022-10-14T02:21:23;101519.66;;;18.31;64.82
70248;BME280;57641;51.416;5.506;2022-10-14T02:26:32;101513.69;;;18.36;64.65
70248;BME280;57641;51.416;5.506;2022-10-14T02:29:00;101517.88;;;18.38;64.52
70248;BME280;57641;51.416;5.506;2022-10-14T02:31:27;101516.66;;;18.41;64.26
70248;BME280;57641;51.416;5.506;2022-10-14T02:33:56;101507.97;;;18.45;64.71
70248;BME280;57641;51.416;5.506;2022-10-14T02:36:24;101509.47;;;18.48;64.59
70248;BME280;57641;51.416;5.506;2022-10-14T02:38:53;101510.31;;;18.48;64.23
70248;BME280;57641;51.416;5.506;2022-10-14T02:41:23;101513.03;;;18.48;64.29
70248;BME280;57641;51.416;5.506;2022-10-14T02:43:50;101515.72;;;18.48;64.28
70248;BME280;57641;51.416;5.506;2022-10-14T02:46:19;101514.50;;;18.51;64.38
70248;BME280;57641;51.416;5.506;2022-10-14T02:48:45;101507.22;;;18.51;64.57
70248;BME280;57641;51.416;5.506;2022-10-14T02:51:11;101507.06;;;18.53;64.21
70248;BME280;57641;51.416;5.506;2022-10-14T02:53:37;101499.13;;;18.51;64.08
70248;BME280;57641;51.416;5.506;2022-10-14T02:56:03;101501.81;;;18.51;64.07
70248;BME280;57641;51.416;5.506;2022-10-14T02:58:28;101502.03;;;18.50;64.35
70248;BME280;57641;51.416;5.506;2022-10-14T03:00:54;101493.09;;;18.49;64.45
70248;BME280;57641;51.416;5.506;2022-10-14T03:03:19;101489.38;;;18.50;64.75
70248;BME280;57641;51.416;5.506;2022-10-14T03:05:46;101488.16;;;18.53;64.45
70248;BME280;57641;51.416;5.506;2022-10-14T03:08:12;101490.84;;;18.53;64.41
70248;BME280;57641;51.416;5.506;2022-10-14T03:10:37;101488.00;;;18.54;64.37
70248;BME280;57641;51.416;5.506;2022-10-14T03:13:02;101477.19;;;18.54;64.55
70248;BME280;57641;51.416;5.506;2022-10-14T03:15:28;101477.81;;;18.56;64.31
70248;BME280;57641;51.416;5.506;2022-10-14T03:17:54;101481.38;;;18.57;64.39
70248;BME280;57641;51.416;5.506;2022-10-14T03:20:19;101475.34;;;18.55;64.21
70248;BME280;57641;51.416;5.506;2022-10-14T03:22:45;101474.50;;;18.54;64.48
70248;BME280;57641;51.416;5.506;2022-10-14T03:25:10;101467.22;;;18.55;64.30
70248;BME280;57641;51.416;5.506;2022-10-14T03:27:36;101473.25;;;18.57;64.35
70248;BME280;57641;51.416;5.506;2022-10-14T03:30:02;101472.25;;;18.58;64.51
70248;BME280;57641;51.416;5.506;2022-10-14T03:32:28;101468.53;;;18.59;64.21
70248;BME280;57641;51.416;5.506;2022-10-14T03:34:53;101465.81;;;18.59;64.43
70248;BME280;57641;51.416;5.506;2022-10-14T03:37:18;101470.38;;;18.59;64.28
70248;BME280;57641;51.416;5.506;2022-10-14T03:39:44;101461.25;;;18.60;64.34
70248;BME280;57641;51.416;5.506;2022-10-14T03:42:10;101454.84;;;18.61;64.29
70248;BME280;57641;51.416;5.506;2022-10-14T03:44:35;101455.69;;;18.61;64.21
70248;BME280;57641;51.416;5.506;2022-10-14T03:47:01;101452.13;;;18.61;64.47
70248;BME280;57641;51.416;5.506;2022-10-14T03:49:26;101450.06;;;18.63;64.49
70248;BME280;57641;51.416;5.506;2022-10-14T03:51:51;101448.38;;;18.62;64.17
70248;BME280;57641;51.416;5.506;2022-10-14T03:54:17;101444.66;;;18.63;64.20
70248;BME280;57641;51.416;5.506;2022-10-14T03:56:42;101438.41;;;18.62;64.58
70248;BME280;57641;51.416;5.506;2022-10-14T03:59:08;101446.34;;;18.64;64.60
70248;BME280;57641;51.416;5.506;2022-10-14T04:01:33;101443.63;;;18.64;64.14
70248;BME280;57641;51.416;5.506;2022-10-14T04:03:58;101436.38;;;18.64;64.19
70248;BME280;57641;51.416;5.506;2022-10-14T04:06:24;101434.50;;;18.65;64.12
70248;BME280;57641;51.416;5.506;2022-10-14T04:08:49;101449.03;;;18.64;64.16
70248;BME280;57641;51.416;5.506;2022-10-14T04:11:15;101435.34;;;18.65;64.44
70248;BME280;57641;51.416;5.506;2022-10-14T04:13:42;101428.72;;;18.68;64.14
70248;BME280;57641;51.416;5.506;2022-10-14T04:16:09;101424.53;;;18.65;64.12
70248;BME280;57641;51.416;5.506;2022-10-14T04:18:35;101442.63;;;18.65;64.11
70248;BME280;57641;51.416;5.506;2022-10-14T04:21:03;101439.06;;;18.64;64.23
70248;BME280;57641;51.416;5.506;2022-10-14T04:23:29;101430.13;;;18.64;64.33
70248;BME280;57641;51.416;5.506;2022-10-14T04:25:55;101438.88;;;18.66;64.32
70248;BME280;57641;51.416;5.506;2022-10-14T04:28:20;101429.94;;;18.65;64.59
70248;BME280;57641;51.416;5.506;2022-10-14T04:30:46;101430.78;;;18.66;64.24
70248;BME280;57641;51.416;5.506;2022-10-14T04:33:11;101426.00;;;18.68;64.40
70248;BME280;57641;51.416;5.506;2022-10-14T04:35:37;101416.03;;;18.68;64.30
70248;BME280;57641;51.416;5.506;2022-10-14T04:38:02;101423.13;;;18.69;64.30
70248;BME280;57641;51.416;5.506;2022-10-14T04:40:28;101424.16;;;18.68;64.56
70248;BME280;57641;51.416;5.506;2022-10-14T04:42:57;101422.09;;;18.70;64.43
70248;BME280;57641;51.416;5.506;2022-10-14T04:45:23;101416.03;;;18.68;64.51
70248;BME280;57641;51.416;5.506;2022-10-14T04:47:50;101415.84;;;18.70;64.52
70248;BME280;57641;51.416;5.506;2022-10-14T04:50:17;101414.84;;;18.71;64.60
70248;BME280;57641;51.416;5.506;2022-10-14T04:52:43;101405.91;;;18.70;64.60
70248;BME280;57641;51.416;5.506;2022-10-14T04:55:08;101413.78;;;18.72;64.60
70248;BME280;57641;51.416;5.506;2022-10-14T04:57:35;101407.75;;;18.70;64.67
70248;BME280;57641;51.416;5.506;2022-10-14T05:00:01;101409.22;;;18.72;64.79
70248;BME280;57641;51.416;5.506;2022-10-14T05:02:26;101405.69;;;18.72;64.62
70248;BME280;57641;51.416;5.506;2022-10-14T05:04:52;101406.16;;;18.75;64.68
70248;BME280;57641;51.416;5.506;2022-10-14T05:07:17;101397.22;;;18.75;64.74
70248;BME280;57641;51.416;5.506;2022-10-14T05:09:43;101400.75;;;18.75;64.56
70248;BME280;57641;51.416;5.506;2022-10-14T05:12:08;101400.09;;;18.73;64.47
70248;BME280;57641;51.416;5.506;2022-10-14T05:14:34;101394.69;;;18.73;64.54
70248;BME280;57641;51.416;5.506;2022-10-14T05:17:00;101389.28;;;18.73;64.62
70248;BME280;57641;51.416;5.506;2022-10-14T05:19:25;101384.53;;;18.75;64.95
70248;BME280;57641;51.416;5.506;2022-10-14T05:21:51;101386.41;;;18.75;64.69
70248;BME280;57641;51.416;5.506;2022-10-14T05:24:16;101385.56;;;18.74;64.64
70248;BME280;57641;51.416;5.506;2022-10-14T05:26:41;101376.81;;;18.72;64.67
70248;BME280;57641;51.416;5.506;2022-10-14T05:29:09;101378.66;;;18.72;64.69
70248;BME280;57641;51.416;5.506;2022-10-14T05:31:35;101370.19;;;18.75;64.84
70248;BME280;57641;51.416;5.506;2022-10-14T05:34:01;101370.19;;;18.75;64.74
70248;BME280;57641;51.416;5.506;2022-10-14T05:36:26;101364.59;;;18.76;64.68
70248;BME280;57641;51.416;5.506;2022-10-14T05:38:51;101361.06;;;18.76;64.66
70248;BME280;57641;51.416;5.506;2022-10-14T05:41:19;101359.38;;;18.75;64.74
70248;BME280;57641;51.416;5.506;2022-10-14T05:43:45;101353.81;;;18.76;64.81
70248;BME280;57641;51.416;5.506;2022-10-14T05:46:10;101350.88;;;18.78;64.71
70248;BME280;57641;51.416;5.506;2022-10-14T05:48:36;101345.03;;;18.74;64.78
70248;BME280;57641;51.416;5.506;2022-10-14T05:51:01;101342.34;;;18.74;64.91
70248;BME280;57641;51.416;5.506;2022-10-14T05:53:27;101349.41;;;18.75;65.01
70248;BME280;57641;51.416;5.506;2022-10-14T05:56:06;101342.78;;;18.78;65.04
70248;BME280;57641;51.416;5.506;2022-10-14T05:58:32;101339.00;;;18.72;65.18
70248;BME280;57641;51.416;5.506;2022-10-14T06:01:08;101339.63;;;18.74;65.06
70248;BME280;57641;51.416;5.506;2022-10-14T06:03:35;101332.38;;;18.75;65.05
70248;BME280;57641;51.416;5.506;2022-10-14T06:06:12;101337.97;;;18.73;65.02
70248;BME280;57641;51.416;5.506;2022-10-14T06:08:39;101338.44;;;18.77;64.99
70248;BME280;57641;51.416;5.506;2022-10-14T06:11:08;101340.47;;;18.75;65.00
70248;BME280;57641;51.416;5.506;2022-10-14T06:13:34;101334.44;;;18.73;64.92
70248;BME280;57641;51.416;5.506;2022-10-14T06:16:03;101331.28;;;18.69;64.92
70248;BME280;57641;51.416;5.506;2022-10-14T06:18:30;101324.03;;;18.70;65.43
70248;BME280;57641;51.416;5.506;2022-10-14T06:20:55;101319.47;;;18.70;65.42
70248;BME280;57641;51.416;5.506;2022-10-14T06:23:21;101320.91;;;18.73;65.40
70248;BME280;57641;51.416;5.506;2022-10-14T06:25:46;101319.72;;;18.75;65.29
70248;BME280;57641;51.416;5.506;2022-10-14T06:28:12;101327.63;;;18.77;65.12
70248;BME280;57641;51.416;5.506;2022-10-14T06:30:37;101318.88;;;18.75;64.91
70248;BME280;57641;51.416;5.506;2022-10-14T06:33:03;101324.28;;;18.75;65.15
70248;BME280;57641;51.416;5.506;2022-10-14T06:35:28;101323.25;;;18.76;65.20
70248;BME280;57641;51.416;5.506;2022-10-14T06:37:54;101323.63;;;18.73;65.48
70248;BME280;57641;51.416;5.506;2022-10-14T06:40:19;101322.22;;;18.77;65.39
70248;BME280;57641;51.416;5.506;2022-10-14T06:42:45;101322.22;;;18.77;65.21
70248;BME280;57641;51.416;5.506;2022-10-14T06:45:10;101318.81;;;18.68;65.37
70248;BME280;57641;51.416;5.506;2022-10-14T06:47:36;101316.09;;;18.68;65.63
70248;BME280;57641;51.416;5.506;2022-10-14T06:50:01;101317.59;;;18.71;65.71
70248;BME280;57641;51.416;5.506;2022-10-14T06:52:27;101306.13;;;18.69;65.83
70248;BME280;57641;51.416;5.506;2022-10-14T06:54:52;101313.03;;;18.71;65.84
70248;BME280;57641;51.416;5.506;2022-10-14T06:57:18;101313.66;;;18.73;65.83
70248;BME280;57641;51.416;5.506;2022-10-14T06:59:43;101307.41;;;18.73;65.80
70248;BME280;57641;51.416;5.506;2022-10-14T07:02:09;101311.59;;;18.75;65.70
70248;BME280;57641;51.416;5.506;2022-10-14T07:04:35;101310.56;;;18.76;65.83
70248;BME280;57641;51.416;5.506;2022-10-14T07:07:00;101305.19;;;18.76;65.86
70248;BME280;57641;51.416;5.506;2022-10-14T07:09:28;101300.78;;;18.75;65.80
70248;BME280;57641;51.416;5.506;2022-10-14T07:11:53;101295.59;;;18.74;65.84
70248;BME280;57641;51.416;5.506;2022-10-14T07:14:19;101298.94;;;18.76;66.04
70248;BME280;57641;51.416;5.506;2022-10-14T07:16:44;101295.63;;;18.80;66.11
70248;BME280;57641;51.416;5.506;2022-10-14T07:19:10;101298.78;;;18.84;66.53
70248;BME280;57641;51.416;5.506;2022-10-14T07:21:36;101305.84;;;18.85;65.70
70248;BME280;57641;51.416;5.506;2022-10-14T07:24:01;101298.78;;;18.84;66.11
70248;BME280;57641;51.416;5.506;2022-10-14T07:26:29;101300.44;;;18.85;66.02
70248;BME280;57641;51.416;5.506;2022-10-14T07:28:55;101301.28;;;18.85;65.93
70248;BME280;57641;51.416;5.506;2022-10-14T07:31:21;101299.03;;;18.89;65.75
70248;BME280;57641;51.416;5.506;2022-10-14T07:33:46;101319.41;;;18.91;65.95
70248;BME280;57641;51.416;5.506;2022-10-14T07:36:14;101311.69;;;18.88;65.84
70248;BME280;57641;51.416;5.506;2022-10-14T07:38:40;101319.03;;;18.94;65.94
70248;BME280;57641;51.416;5.506;2022-10-14T07:41:09;101320.25;;;18.92;66.44
70248;BME280;57641;51.416;5.506;2022-10-14T07:43:42;101315.47;;;18.94;66.07
70248;BME280;57641;51.416;5.506;2022-10-14T07:46:08;101306.16;;;18.96;66.03
70248;BME280;57641;51.416;5.506;2022-10-14T07:48:34;101299.72;;;18.97;65.98
70248;BME280;57641;51.416;5.506;2022-10-14T07:51:00;101298.66;;;18.98;65.96
70248;BME280;57641;51.416;5.506;2022-10-14T07:53:26;101296.19;;;18.97;65.97
70248;BME280;57641;51.416;5.506;2022-10-14T07:55:51;101302.03;;;19.01;66.25
70248;BME280;57641;51.416;5.506;2022-10-14T07:58:22;101302.44;;;19.04;66.52
70248;BME280;57641;51.416;5.506;2022-10-14T08:00:49;101299.38;;;19.07;66.35
70248;BME280;57641;51.416;5.506;2022-10-14T08:03:17;101298.78;;;19.12;66.28
70248;BME280;57641;51.416;5.506;2022-10-14T08:05:43;101290.25;;;19.15;66.09
70248;BME280;57641;51.416;5.506;2022-10-14T08:08:09;101288.81;;;19.12;66.05
70248;BME280;57641;51.416;5.506;2022-10-14T08:10:35;101286.34;;;19.17;65.95
70248;BME280;57641;51.416;5.506;2022-10-14T08:13:00;101287.78;;;19.20;66.07
70248;BME280;57641;51.416;5.506;2022-10-14T08:15:26;101290.72;;;19.25;66.00
70248;BME280;57641;51.416;5.506;2022-10-14T08:17:54;101300.13;;;19.29;65.96
70248;BME280;57641;51.416;5.506;2022-10-14T08:20:20;101297.22;;;19.30;65.89
70248;BME280;57641;51.416;5.506;2022-10-14T08:22:45;101296.00;;;19.33;65.94
70248;BME280;57641;51.416;5.506;2022-10-14T08:25:11;101287.47;;;19.36;65.94
70248;BME280;57641;51.416;5.506;2022-10-14T08:27:36;101283.91;;;19.29;65.69
70248;BME280;57641;51.416;5.506;2022-10-14T08:30:03;101275.19;;;19.33;65.84
70248;BME280;57641;51.416;5.506;2022-10-14T08:32:29;101278.97;;;19.39;65.70
70248;BME280;57641;51.416;5.506;2022-10-14T08:34:54;101282.09;;;19.42;65.91
70248;BME280;57641;51.416;5.506;2022-10-14T08:37:21;101275.38;;;19.32;65.59
70248;BME280;57641;51.416;5.506;2022-10-14T08:39:47;101277.28;;;19.38;66.12
70248;BME280;57641;51.416;5.506;2022-10-14T08:42:29;101280.44;;;19.41;65.85
70248;BME280;57641;51.416;5.506;2022-10-14T08:47:40;101277.72;;;19.41;66.13
70248;BME280;57641;51.416;5.506;2022-10-14T08:50:26;101280.19;;;19.36;66.35
70248;BME280;57641;51.416;5.506;2022-10-14T08:53:01;101276.28;;;19.39;66.17
70248;BME280;57641;51.416;5.506;2022-10-14T08:55:35;101278.38;;;19.44;66.38
70248;BME280;57641;51.416;5.506;2022-10-14T08:58:15;101273.63;;;19.46;66.20
70248;BME280;57641;51.416;5.506;2022-10-14T09:00:46;101273.22;;;19.49;66.47
70248;BME280;57641;51.416;5.506;2022-10-14T09:03:25;101276.16;;;19.54;66.43
70248;BME280;57641;51.416;5.506;2022-10-14T09:06:12;101268.69;;;19.56;66.17
70248;BME280;57641;51.416;5.506;2022-10-14T09:08:43;101262.63;;;19.54;66.01
70248;BME280;57641;51.416;5.506;2022-10-14T09:11:13;101274.91;;;19.50;66.16
70248;BME280;57641;51.416;5.506;2022-10-14T09:13:42;101269.69;;;19.48;66.20
70248;BME280;57641;51.416;5.506;2022-10-14T09:16:25;101264.28;;;19.48;66.40
70248;BME280;57641;51.416;5.506;2022-10-14T09:18:59;101266.06;;;19.41;66.56
70248;BME280;57641;51.416;5.506;2022-10-14T09:21:32;101270.25;;;19.44;66.59
70248;BME280;57641;51.416;5.506;2022-10-14T09:24:16;101263.44;;;19.48;66.82
70248;BME280;57641;51.416;5.506;2022-10-14T09:26:49;101262.41;;;19.49;66.82
70248;BME280;57641;51.416;5.506;2022-10-14T09:29:27;101266.78;;;19.50;67.00
70248;BME280;57641;51.416;5.506;2022-10-14T09:31:56;101259.69;;;19.49;67.20
70248;BME280;57641;51.416;5.506;2022-10-14T09:34:48;101255.34;;;19.54;67.37
70248;BME280;57641;51.416;5.506;2022-10-14T09:40:03;101255.78;;;19.58;67.26
70248;BME280;57641;51.416;5.506;2022-10-14T09:45:15;101249.13;;;19.60;67.37
70248;BME280;57641;51.416;5.506;2022-10-14T09:47:50;101252.06;;;19.65;67.42
70248;BME280;57641;51.416;5.506;2022-10-14T09:50:39;101241.47;;;19.70;66.95
70248;BME280;57641;51.416;5.506;2022-10-14T09:53:14;101248.09;;;19.55;67.53
70248;BME280;57641;51.416;5.506;2022-10-14T09:55:49;101239.38;;;19.66;67.40
70248;BME280;57641;51.416;5.506;2022-10-14T09:58:27;101241.06;;;19.67;67.30
70248;BME280;57641;51.416;5.506;2022-10-14T10:00:58;101240.44;;;19.71;67.27
70248;BME280;57641;51.416;5.506;2022-10-14T10:03:29;101235.22;;;19.70;67.17
70248;BME280;57641;51.416;5.506;2022-10-14T10:06:10;101227.34;;;19.75;67.11
70248;BME280;57641;51.416;5.506;2022-10-14T10:08:53;101233.97;;;19.72;67.01
70248;BME280;57641;51.416;5.506;2022-10-14T10:11:33;101228.34;;;19.67;67.38
70248;BME280;57641;51.416;5.506;2022-10-14T10:14:34;101233.78;;;19.74;67.09
70248;BME280;57641;51.416;5.506;2022-10-14T10:19:36;101224.63;;;19.75;67.15
70248;BME280;57641;51.416;5.506;2022-10-14T10:22:25;101227.13;;;19.70;67.50
70248;BME280;57641;51.416;5.506;2022-10-14T10:27:44;101215.25;;;19.77;67.45
70248;BME280;57641;51.416;5.506;2022-10-14T10:35:21;101211.53;;;19.85;67.76
70248;BME280;57641;51.416;5.506;2022-10-14T10:38:07;101211.56;;;19.92;67.58
70248;BME280;57641;51.416;5.506;2022-10-14T10:46:35;101209.44;;;19.74;67.90
70248;BME280;57641;51.416;5.506;2022-10-14T10:52:22;101206.53;;;19.82;68.32
70248;BME280;57641;51.416;5.506;2022-10-14T11:00:51;101198.66;;;19.87;68.11
70248;BME280;57641;51.416;5.506;2022-10-14T11:06:32;101190.91;;;19.84;68.15
70248;BME280;57641;51.416;5.506;2022-10-14T11:09:38;101188.22;;;19.84;68.10
70248;BME280;57641;51.416;5.506;2022-10-14T11:15:18;101181.78;;;19.92;68.32
70248;BME280;57641;51.416;5.506;2022-10-14T11:18:01;101173.88;;;19.90;68.16
70248;BME280;57641;51.416;5.506;2022-10-14T11:20:45;101179.50;;;19.95;67.97
70248;BME280;57641;51.416;5.506;2022-10-14T11:23:41;101180.31;;;19.96;68.03
70248;BME280;57641;51.416;5.506;2022-10-14T11:26:32;101180.91;;;19.78;67.77
70248;BME280;57641;51.416;5.506;2022-10-14T11:31:38;101178.63;;;19.88;67.66
70248;BME280;57641;51.416;5.506;2022-10-14T11:39:37;101172.63;;;19.93;67.77
70248;BME280;57641;51.416;5.506;2022-10-14T11:42:25;101161.38;;;19.96;67.85
70248;BME280;57641;51.416;5.506;2022-10-14T11:45:16;101167.41;;;19.91;67.61
70248;BME280;57641;51.416;5.506;2022-10-14T11:47:47;101154.09;;;19.96;67.89
70248;BME280;57641;51.416;5.506;2022-10-14T11:50:18;101144.31;;;20.02;67.69
70248;BME280;57641;51.416;5.506;2022-10-14T11:52:57;101135.78;;;20.11;67.80
70248;BME280;57641;51.416;5.506;2022-10-14T11:55:29;101134.31;;;20.15;67.14
70248;BME280;57641;51.416;5.506;2022-10-14T11:58:08;101137.66;;;20.17;67.57
70248;BME280;57641;51.416;5.506;2022-10-14T12:00:37;101130.34;;;20.11;67.55
70248;BME280;57641;51.416;5.506;2022-10-14T12:03:39;101124.94;;;20.18;67.25
70248;BME280;57641;51.416;5.506;2022-10-14T12:09:05;101122.88;;;20.07;67.58
70248;BME280;57641;51.416;5.506;2022-10-14T12:11:44;101122.25;;;19.98;67.20
70248;BME280;57641;51.416;5.506;2022-10-14T12:14:21;101117.06;;;20.03;67.73
70248;BME280;57641;51.416;5.506;2022-10-14T12:16:49;101114.56;;;20.08;67.80
70248;BME280;57641;51.416;5.506;2022-10-14T12:19:25;101114.97;;;20.12;67.78
70248;BME280;57641;51.416;5.506;2022-10-14T12:22:16;101114.31;;;20.16;67.57
70248;BME280;57641;51.416;5.506;2022-10-14T12:24:48;101108.31;;;20.14;67.95
70248;BME280;57641;51.416;5.506;2022-10-14T12:27:15;101107.47;;;20.14;67.72
70248;BME280;57641;51.416;5.506;2022-10-14T12:29:45;101106.00;;;20.18;67.75
70248;BME280;57641;51.416;5.506;2022-10-14T12:32:20;101107.25;;;20.29;67.59
70248;BME280;57641;51.416;5.506;2022-10-14T12:34:56;101084.53;;;20.30;67.60
70248;BME280;57641;51.416;5.506;2022-10-14T12:42:32;101082.66;;;20.17;67.73
70248;BME280;57641;51.416;5.506;2022-10-14T12:45:02;101079.53;;;20.20;67.84
70248;BME280;57641;51.416;5.506;2022-10-14T12:47:39;101087.44;;;20.28;67.83
70248;BME280;57641;51.416;5.506;2022-10-14T12:50:28;101082.66;;;20.30;67.84
70248;BME280;57641;51.416;5.506;2022-10-14T12:52:59;101085.16;;;20.32;67.66
70248;BME280;57641;51.416;5.506;2022-10-14T12:55:28;101084.53;;;20.36;67.70
70248;BME280;57641;51.416;5.506;2022-10-14T12:58:04;101076.84;;;20.40;67.30
70248;BME280;57641;51.416;5.506;2022-10-14T13:00:34;101081.63;;;20.38;67.34
70248;BME280;57641;51.416;5.506;2022-10-14T13:03:03;101076.84;;;20.33;67.31
70248;BME280;57641;51.416;5.506;2022-10-14T13:05:35;101071.41;;;20.27;67.54
70248;BME280;57641;51.416;5.506;2022-10-14T13:11:10;101074.94;;;20.27;67.31
70248;BME280;57641;51.416;5.506;2022-10-14T13:18:57;101066.81;;;20.20;67.42
70248;BME280;57641;51.416;5.506;2022-10-14T13:21:41;101071.41;;;20.20;67.85
70248;BME280;57641;51.416;5.506;2022-10-14T13:24:39;101073.28;;;20.26;67.91
70248;BME280;57641;51.416;5.506;2022-10-14T13:32:42;101065.59;;;20.23;67.78
70248;BME280;57641;51.416;5.506;2022-10-14T13:35:41;101061.22;;;20.22;67.83
70248;BME280;57641;51.416;5.506;2022-10-14T13:38:14;101065.78;;;20.21;67.47
70248;BME280;57641;51.416;5.506;2022-10-14T13:40:46;101067.47;;;20.29;67.52
70248;BME280;57641;51.416;5.506;2022-10-14T13:43:17;101058.94;;;20.32;67.52
70248;BME280;57641;51.416;5.506;2022-10-14T13:45:50;101054.75;;;20.36;67.69
70248;BME280;57641;51.416;5.506;2022-10-14T13:48:28;101053.50;;;20.39;67.99
70248;BME280;57641;51.416;5.506;2022-10-14T13:53:31;101045.31;;;20.52;67.92
70248;BME280;57641;51.416;5.506;2022-10-14T13:55:56;101040.34;;;20.55;67.88
70248;BME280;57641;51.416;5.506;2022-10-14T13:58:24;101040.50;;;20.67;67.51
70248;BME280;57641;51.416;5.506;2022-10-14T14:03:38;101033.56;;;20.78;66.63
70248;BME280;57641;51.416;5.506;2022-10-14T14:06:11;101030.69;;;20.73;66.99
70248;BME280;57641;51.416;5.506;2022-10-14T14:08:51;101025.25;;;20.73;66.65
70248;BME280;57641;51.416;5.506;2022-10-14T14:11:26;101029.41;;;20.75;66.64
70248;BME280;57641;51.416;5.506;2022-10-14T14:14:01;101037.75;;;20.74;66.38
70248;BME280;57641;51.416;5.506;2022-10-14T14:16:39;101041.75;;;20.64;66.30
70248;BME280;57641;51.416;5.506;2022-10-14T14:19:06;101038.84;;;20.66;66.60
70248;BME280;57641;51.416;5.506;2022-10-14T14:21:41;101035.28;;;20.65;67.09
70248;BME280;57641;51.416;5.506;2022-10-14T14:24:25;101036.53;;;20.63;66.93
70248;BME280;57641;51.416;5.506;2022-10-14T14:26:54;101040.50;;;20.67;67.06
70248;BME280;57641;51.416;5.506;2022-10-14T14:29:27;101037.78;;;20.67;66.85
70248;BME280;57641;51.416;5.506;2022-10-14T14:31:53;101024.66;;;20.64;66.69
70248;BME280;57641;51.416;5.506;2022-10-14T14:34:20;101024.00;;;20.69;66.74
70248;BME280;57641;51.416;5.506;2022-10-14T14:36:47;101021.28;;;20.69;66.78
70248;BME280;57641;51.416;5.506;2022-10-14T14:39:21;101026.06;;;20.73;66.39
70248;BME280;57641;51.416;5.506;2022-10-14T14:41:49;101025.03;;;20.67;66.36
70248;BME280;57641;51.416;5.506;2022-10-14T14:44:19;101010.03;;;20.72;65.99
70248;BME280;57641;51.416;5.506;2022-10-14T14:46:48;101011.28;;;20.69;65.86
70248;BME280;57641;51.416;5.506;2022-10-14T14:49:21;101009.41;;;20.70;66.13
70248;BME280;57641;51.416;5.506;2022-10-14T14:51:49;100998.38;;;20.71;65.99